sensor_id;sensor_type;location;lat;lon;timestamp;pressure;altitude;pressure_sealevel;temperature;humidity
36092;BME280;22147;52.388;13.390;2023-07-08T00:01:47;101481.13;;;14.38;100.00
36092;BME280;22147;52.388;13.390;2023-07-08T00:04:17;101480.97;;;14.34;100.00
36092;BME280;22147;52.388;13.390;2023-07-08T00:06:48;101489.69;;;14.33;100.00
36092;BME280;22147;52.388;13.390;2023-07-08T00:09:19;101478.00;;;14.31;100.00
36092;BME280;22147;52.388;13.390;2023-07-08T00:11:49;101480.69;;;14.27;100.00
36092;BME280;22147;52.388;13.390;2023-07-08T00:14:19;101468.53;;;14.23;100.00
36092;BME280;22147;52.388;13.390;2023-07-08T00:16:50;101468.38;;;14.19;100.00
36092;BME280;22147;52.388;13.390;2023-07-08T00:19:21;101467.41;;;14.15;100.00
36092;BME280;22147;52.388;13.390;2023-07-08T00:21:53;101476.78;;;14.11;100.00
36092;BME280;22147;52.388;13.390;2023-07-08T00:24:23;101472.22;;;14.06;100.00
36092;BME280;22147;52.388;13.390;2023-07-08T00:26:54;101462.88;;;14.02;100.00
36092;BME280;22147;52.388;13.390;2023-07-08T00:29:24;101461.56;;;13.99;100.00
36092;BME280;22147;52.388;13.390;2023-07-08T00:31:54;101464.19;;;13.96;100.00
36092;BME280;22147;52.388;13.390;2023-07-08T00:34:24;101464.03;;;13.92;100.00
36092;BME280;22147;52.388;13.390;2023-07-08T00:36:54;101461.91;;;13.89;100.00
36092;BME280;22147;52.388;13.390;2023-07-08T00:39:24;101467.81;;;13.88;100.00
36092;BME280;22147;52.388;13.390;2023-07-08T00:41:55;101468.50;;;13.84;100.00
36092;BME280;22147;52.388;13.390;2023-07-08T00:44:27;101470.31;;;13.80;100.00
36092;BME280;22147;52.388;13.390;2023-07-08T00:47:07;101470.97;;;13.77;100.00
36092;BME280;22147;52.388;13.390;2023-07-08T00:49:45;101469.66;;;13.75;100.00
36092;BME280;22147;52.388;13.390;2023-07-08T00:52:27;101465.41;;;13.69;100.00
36092;BME280;22147;52.388;13.390;2023-07-08T00:55:06;101468.03;;;13.65;100.00
36092;BME280;22147;52.388;13.390;2023-07-08T00:57:44;101474.63;;;13.60;100.00
36092;BME280;22147;52.388;13.390;2023-07-08T01:00:16;101471.69;;;13.57;100.00
36092;BME280;22147;52.388;13.390;2023-07-08T01:02:55;101476.78;;;13.55;100.00
36092;BME280;22147;52.388;13.390;2023-07-08T01:05:29;101473.81;;;13.51;100.00
36092;BME280;22147;52.388;13.390;2023-07-08T01:08:05;101471.66;;;13.48;100.00
36092;BME280;22147;52.388;13.390;2023-07-08T01:10:49;101473.16;;;13.46;100.00
36092;BME280;22147;52.388;13.390;2023-07-08T01:13:24;101462.66;;;13.42;100.00
36092;BME280;22147;52.388;13.390;2023-07-08T01:15:55;101468.06;;;13.39;100.00
36092;BME280;22147;52.388;13.390;2023-07-08T01:18:25;101462.81;;;13.37;100.00
36092;BME280;22147;52.388;13.390;2023-07-08T01:20:54;101467.09;;;13.35;100.00
36092;BME280;22147;52.388;13.390;2023-07-08T01:23:25;101460.19;;;13.32;100.00
36092;BME280;22147;52.388;13.390;2023-07-08T01:25:56;101456.91;;;13.30;100.00
36092;BME280;22147;52.388;13.390;2023-07-08T01:28:28;101458.38;;;13.28;100.00
36092;BME280;22147;52.388;13.390;2023-07-08T01:30:59;101461.47;;;13.26;100.00
36092;BME280;22147;52.388;13.390;2023-07-08T01:33:34;101459.38;;;13.23;100.00
36092;BME280;22147;52.388;13.390;2023-07-08T01:36:04;101453.63;;;13.19;100.00
36092;BME280;22147;52.388;13.390;2023-07-08T01:38:34;101453.94;;;13.18;100.00
36092;BME280;22147;52.388;13.390;2023-07-08T01:41:05;101454.59;;;13.15;100.00
36092;BME280;22147;52.388;13.390;2023-07-08T01:43:38;101452.47;;;13.12;100.00
36092;BME280;22147;52.388;13.390;2023-07-08T01:46:22;101452.31;;;13.08;100.00
36092;BME280;22147;52.388;13.390;2023-07-08T01:48:57;101444.59;;;13.05;100.00
36092;BME280;22147;52.388;13.390;2023-07-08T01:51:31;101442.47;;;13.02;100.00
36092;BME280;22147;52.388;13.390;2023-07-08T01:54:00;101436.41;;;13.00;100.00
36092;BME280;22147;52.388;13.390;2023-07-08T01:56:30;101445.06;;;12.98;100.00
36092;BME280;22147;52.388;13.390;2023-07-08T01:59:00;101448.19;;;12.97;100.00
36092;BME280;22147;52.388;13.390;2023-07-08T02:01:29;101440.97;;;12.96;100.00
36092;BME280;22147;52.388;13.390;2023-07-08T02:03:57;101442.13;;;12.95;100.00
36092;BME280;22147;52.388;13.390;2023-07-08T02:06:25;101449.16;;;12.92;100.00
36092;BME280;22147;52.388;13.390;2023-07-08T02:08:54;101448.69;;;12.90;100.00
36092;BME280;22147;52.388;13.390;2023-07-08T02:11:25;101455.41;;;12.89;100.00
36092;BME280;22147;52.388;13.390;2023-07-08T02:13:54;101455.72;;;12.88;100.00
36092;BME280;22147;52.388;13.390;2023-07-08T02:16:22;101447.38;;;12.88;100.00
36092;BME280;22147;52.388;13.390;2023-07-08T02:18:51;101443.28;;;12.85;100.00
36092;BME280;22147;52.388;13.390;2023-07-08T02:21:19;101443.91;;;12.82;100.00
36092;BME280;22147;52.388;13.390;2023-07-08T02:23:51;101441.94;;;12.82;100.00
36092;BME280;22147;52.388;13.390;2023-07-08T02:26:21;101449.34;;;12.78;100.00
36092;BME280;22147;52.388;13.390;2023-07-08T02:28:51;101444.06;;;12.77;100.00
36092;BME280;22147;52.388;13.390;2023-07-08T02:31:21;101441.59;;;12.75;100.00
36092;BME280;22147;52.388;13.390;2023-07-08T02:33:54;101449.47;;;12.73;100.00
36092;BME280;22147;52.388;13.390;2023-07-08T02:36:24;101453.41;;;12.72;100.00
36092;BME280;22147;52.388;13.390;2023-07-08T02:38:54;101449.28;;;12.70;100.00
36092;BME280;22147;52.388;13.390;2023-07-08T02:41:24;101447.66;;;12.69;100.00
36092;BME280;22147;52.388;13.390;2023-07-08T02:43:54;101439.94;;;12.66;100.00
36092;BME280;22147;52.388;13.390;2023-07-08T02:46:24;101445.00;;;12.63;100.00
36092;BME280;22147;52.388;13.390;2023-07-08T02:48:54;101446.19;;;12.62;100.00
36092;BME280;22147;52.388;13.390;2023-07-08T02:51:24;101442.06;;;12.60;100.00
36092;BME280;22147;52.388;13.390;2023-07-08T02:53:54;101439.59;;;12.58;100.00
36092;BME280;22147;52.388;13.390;2023-07-08T02:56:22;101440.78;;;12.57;100.00
36092;BME280;22147;52.388;13.390;2023-07-08T02:58:51;101439.94;;;12.57;100.00
36092;BME280;22147;52.388;13.390;2023-07-08T03:01:19;101441.25;;;12.59;100.00
36092;BME280;22147;52.388;13.390;2023-07-08T03:03:48;101436.00;;;12.58;100.00
36092;BME280;22147;52.388;13.390;2023-07-08T03:06:16;101439.44;;;12.55;100.00
36092;BME280;22147;52.388;13.390;2023-07-08T03:08:45;101437.81;;;12.54;100.00
36092;BME280;22147;52.388;13.390;2023-07-08T03:11:13;101438.94;;;12.53;100.00
36092;BME280;22147;52.388;13.390;2023-07-08T03:13:42;101436.50;;;12.51;100.00
36092;BME280;22147;52.388;13.390;2023-07-08T03:16:10;101426.47;;;12.50;100.00
36092;BME280;22147;52.388;13.390;2023-07-08T03:18:41;101433.22;;;12.49;100.00
36092;BME280;22147;52.388;13.390;2023-07-08T03:21:18;101429.56;;;12.49;100.00
36092;BME280;22147;52.388;13.390;2023-07-08T03:23:50;101432.38;;;12.49;100.00
36092;BME280;22147;52.388;13.390;2023-07-08T03:26:24;101430.41;;;12.49;100.00
36092;BME280;22147;52.388;13.390;2023-07-08T03:28:57;101422.88;;;12.50;100.00
36092;BME280;22147;52.388;13.390;2023-07-08T03:31:27;101426.97;;;12.52;100.00
36092;BME280;22147;52.388;13.390;2023-07-08T03:33:57;101424.69;;;12.54;100.00
36092;BME280;22147;52.388;13.390;2023-07-08T03:36:27;101417.63;;;12.57;100.00
36092;BME280;22147;52.388;13.390;2023-07-08T03:38:57;101418.97;;;12.59;100.00
36092;BME280;22147;52.388;13.390;2023-07-08T03:41:28;101425.03;;;12.61;100.00
36092;BME280;22147;52.388;13.390;2023-07-08T03:43:57;101426.34;;;12.64;100.00
36092;BME280;22147;52.388;13.390;2023-07-08T03:46:25;101421.28;;;12.66;100.00
36092;BME280;22147;52.388;13.390;2023-07-08T03:48:53;101421.44;;;12.70;100.00
36092;BME280;22147;52.388;13.390;2023-07-08T03:51:29;101426.84;;;12.75;100.00
36092;BME280;22147;52.388;13.390;2023-07-08T03:54:02;101429.81;;;12.78;100.00
36092;BME280;22147;52.388;13.390;2023-07-08T03:56:32;101430.47;;;12.84;100.00
36092;BME280;22147;52.388;13.390;2023-07-08T03:59:02;101434.75;;;12.90;100.00
36092;BME280;22147;52.388;13.390;2023-07-08T04:01:32;101442.13;;;12.95;100.00
36092;BME280;22147;52.388;13.390;2023-07-08T04:04:02;101441.13;;;12.99;100.00
36092;BME280;22147;52.388;13.390;2023-07-08T04:06:33;101423.44;;;13.04;100.00
36092;BME280;22147;52.388;13.390;2023-07-08T04:09:04;101427.72;;;13.10;100.00
36092;BME280;22147;52.388;13.390;2023-07-08T04:11:34;101434.25;;;13.14;100.00
36092;BME280;22147;52.388;13.390;2023-07-08T04:14:04;101428.50;;;13.19;100.00
36092;BME280;22147;52.388;13.390;2023-07-08T04:16:44;101430.81;;;13.26;100.00
36092;BME280;22147;52.388;13.390;2023-07-08T04:19:16;101435.41;;;13.31;100.00
36092;BME280;22147;52.388;13.390;2023-07-08T04:21:46;101437.72;;;13.37;100.00
36092;BME280;22147;52.388;13.390;2023-07-08T04:24:18;101432.78;;;13.43;100.00
36092;BME280;22147;52.388;13.390;2023-07-08T04:26:48;101432.59;;;13.48;100.00
36092;BME280;22147;52.388;13.390;2023-07-08T04:29:21;101432.44;;;13.62;100.00
36092;BME280;22147;52.388;13.390;2023-07-08T04:31:52;101435.66;;;13.81;100.00
36092;BME280;22147;52.388;13.390;2023-07-08T04:34:22;101434.13;;;14.01;100.00
36092;BME280;22147;52.388;13.390;2023-07-08T04:36:52;101439.63;;;14.19;100.00
36092;BME280;22147;52.388;13.390;2023-07-08T04:39:22;101440.22;;;14.33;100.00
36092;BME280;22147;52.388;13.390;2023-07-08T04:41:51;101437.00;;;14.52;100.00
36092;BME280;22147;52.388;13.390;2023-07-08T04:44:19;101452.19;;;14.72;100.00
36092;BME280;22147;52.388;13.390;2023-07-08T04:46:54;101450.22;;;14.94;100.00
36092;BME280;22147;52.388;13.390;2023-07-08T04:49:26;101451.25;;;15.10;100.00
36092;BME280;22147;52.388;13.390;2023-07-08T04:52:02;101439.81;;;15.24;100.00
36092;BME280;22147;52.388;13.390;2023-07-08T04:54:32;101444.94;;;15.34;100.00
36092;BME280;22147;52.388;13.390;2023-07-08T04:57:02;101448.16;;;15.45;100.00
36092;BME280;22147;52.388;13.390;2023-07-08T04:59:33;101445.41;;;15.57;100.00
36092;BME280;22147;52.388;13.390;2023-07-08T05:02:04;101443.28;;;15.75;100.00
36092;BME280;22147;52.388;13.390;2023-07-08T05:04:33;101447.88;;;15.92;100.00
36092;BME280;22147;52.388;13.390;2023-07-08T05:07:01;101445.19;;;16.08;100.00
36092;BME280;22147;52.388;13.390;2023-07-08T05:09:29;101438.34;;;16.30;99.62
36092;BME280;22147;52.388;13.390;2023-07-08T05:12:01;101444.28;;;16.53;97.14
36092;BME280;22147;52.388;13.390;2023-07-08T05:14:29;101443.22;;;16.70;93.77
36092;BME280;22147;52.388;13.390;2023-07-08T05:16:58;101443.44;;;16.89;93.72
36092;BME280;22147;52.388;13.390;2023-07-08T05:19:27;101443.50;;;17.05;93.32
36092;BME280;22147;52.388;13.390;2023-07-08T05:21:55;101439.13;;;17.20;93.48
36092;BME280;22147;52.388;13.390;2023-07-08T05:24:23;101436.06;;;17.38;91.37
36092;BME280;22147;52.388;13.390;2023-07-08T05:26:52;101442.16;;;17.56;89.55
36092;BME280;22147;52.388;13.390;2023-07-08T05:29:20;101449.44;;;17.73;88.76
36092;BME280;22147;52.388;13.390;2023-07-08T05:31:48;101450.31;;;17.89;88.25
36092;BME280;22147;52.388;13.390;2023-07-08T05:34:17;101446.88;;;18.11;84.49
36092;BME280;22147;52.388;13.390;2023-07-08T05:36:45;101444.97;;;18.31;84.50
36092;BME280;22147;52.388;13.390;2023-07-08T05:39:14;101442.22;;;18.51;83.17
36092;BME280;22147;52.388;13.390;2023-07-08T05:41:42;101439.09;;;18.72;82.03
36092;BME280;22147;52.388;13.390;2023-07-08T05:44:11;101454.13;;;18.96;83.44
36092;BME280;22147;52.388;13.390;2023-07-08T05:46:39;101445.44;;;19.20;82.89
36092;BME280;22147;52.388;13.390;2023-07-08T05:49:07;101450.75;;;19.45;81.71
36092;BME280;22147;52.388;13.390;2023-07-08T05:51:36;101458.53;;;19.71;77.64
36092;BME280;22147;52.388;13.390;2023-07-08T05:54:05;101455.34;;;19.96;77.37
36092;BME280;22147;52.388;13.390;2023-07-08T05:56:33;101452.28;;;20.27;74.98
36092;BME280;22147;52.388;13.390;2023-07-08T05:59:02;101457.66;;;20.59;75.70
36092;BME280;22147;52.388;13.390;2023-07-08T06:01:33;101456.09;;;20.88;74.80
36092;BME280;22147;52.388;13.390;2023-07-08T06:04:03;101461.72;;;21.19;72.26
36092;BME280;22147;52.388;13.390;2023-07-08T06:06:33;101469.38;;;21.45;71.88
36092;BME280;22147;52.388;13.390;2023-07-08T06:09:03;101469.72;;;21.77;70.55
36092;BME280;22147;52.388;13.390;2023-07-08T06:11:33;101462.81;;;22.12;69.11
36092;BME280;22147;52.388;13.390;2023-07-08T06:14:03;101466.00;;;22.51;66.37
36092;BME280;22147;52.388;13.390;2023-07-08T06:16:34;101465.41;;;22.83;64.23
36092;BME280;22147;52.388;13.390;2023-07-08T06:19:10;101468.84;;;23.17;64.70
36092;BME280;22147;52.388;13.390;2023-07-08T06:21:40;101467.78;;;23.44;63.24
36092;BME280;22147;52.388;13.390;2023-07-08T06:24:09;101465.34;;;23.49;60.53
36092;BME280;22147;52.388;13.390;2023-07-08T06:26:38;101477.66;;;23.86;60.99
36092;BME280;22147;52.388;13.390;2023-07-08T06:29:06;101479.28;;;23.90;57.83
36092;BME280;22147;52.388;13.390;2023-07-08T06:31:34;101479.31;;;24.19;60.25
36092;BME280;22147;52.388;13.390;2023-07-08T06:34:03;101474.88;;;24.61;58.51
36092;BME280;22147;52.388;13.390;2023-07-08T06:36:31;101474.00;;;24.93;54.02
36092;BME280;22147;52.388;13.390;2023-07-08T06:38:59;101473.16;;;25.07;51.01
36092;BME280;22147;52.388;13.390;2023-07-08T06:41:28;101467.97;;;24.30;50.84
36092;BME280;22147;52.388;13.390;2023-07-08T06:43:56;101463.91;;;24.27;51.80
36092;BME280;22147;52.388;13.390;2023-07-08T06:46:25;101463.91;;;24.45;52.58
36092;BME280;22147;52.388;13.390;2023-07-08T06:48:55;101456.97;;;24.93;52.77
36092;BME280;22147;52.388;13.390;2023-07-08T06:51:23;101461.69;;;25.43;53.08
36092;BME280;22147;52.388;13.390;2023-07-08T06:53:52;101468.34;;;25.92;49.91
36092;BME280;22147;52.388;13.390;2023-07-08T06:56:21;101462.03;;;26.22;48.79
36092;BME280;22147;52.388;13.390;2023-07-08T06:58:49;101457.78;;;26.45;48.63
36092;BME280;22147;52.388;13.390;2023-07-08T07:01:17;101456.09;;;26.51;49.41
36092;BME280;22147;52.388;13.390;2023-07-08T07:03:46;101459.91;;;26.78;50.17
36092;BME280;22147;52.388;13.390;2023-07-08T07:06:14;101452.78;;;26.59;46.76
36092;BME280;22147;52.388;13.390;2023-07-08T07:08:43;101458.47;;;26.56;47.97
36092;BME280;22147;52.388;13.390;2023-07-08T07:11:11;101463.53;;;26.83;47.15
36092;BME280;22147;52.388;13.390;2023-07-08T07:13:39;101464.31;;;27.21;46.73
36092;BME280;22147;52.388;13.390;2023-07-08T07:16:08;101459.66;;;27.38;44.56
36092;BME280;22147;52.388;13.390;2023-07-08T07:18:36;101458.78;;;27.07;44.35
36092;BME280;22147;52.388;13.390;2023-07-08T07:21:05;101467.34;;;27.41;45.70
36092;BME280;22147;52.388;13.390;2023-07-08T07:23:33;101466.22;;;27.66;44.89
36092;BME280;22147;52.388;13.390;2023-07-08T07:26:02;101463.53;;;27.86;45.54
36092;BME280;22147;52.388;13.390;2023-07-08T07:28:30;101462.59;;;27.92;43.63
36092;BME280;22147;52.388;13.390;2023-07-08T07:31:00;101460.91;;;28.22;43.35
36092;BME280;22147;52.388;13.390;2023-07-08T07:33:30;101454.22;;;28.32;41.64
36092;BME280;22147;52.388;13.390;2023-07-08T07:35:59;101463.06;;;28.38;42.10
36092;BME280;22147;52.388;13.390;2023-07-08T07:38:27;101457.84;;;28.09;40.87
36092;BME280;22147;52.388;13.390;2023-07-08T07:40:56;101454.19;;;27.81;39.66
36092;BME280;22147;52.388;13.390;2023-07-08T07:43:30;101446.50;;;27.75;41.56
36092;BME280;22147;52.388;13.390;2023-07-08T07:45:59;101455.94;;;28.02;39.82
36092;BME280;22147;52.388;13.390;2023-07-08T07:48:30;101457.56;;;28.27;41.60
36092;BME280;22147;52.388;13.390;2023-07-08T07:51:00;101462.50;;;28.47;40.34
36092;BME280;22147;52.388;13.390;2023-07-08T07:53:29;101460.19;;;28.65;39.11
36092;BME280;22147;52.388;13.390;2023-07-08T07:56:02;101455.78;;;28.60;39.92
36092;BME280;22147;52.388;13.390;2023-07-08T07:58:33;101448.44;;;28.83;38.91
36092;BME280;22147;52.388;13.390;2023-07-08T08:01:03;101452.00;;;29.11;39.53
36092;BME280;22147;52.388;13.390;2023-07-08T08:03:33;101449.28;;;28.80;38.77
36092;BME280;22147;52.388;13.390;2023-07-08T08:06:02;101447.22;;;28.80;40.21
36092;BME280;22147;52.388;13.390;2023-07-08T08:08:30;101453.78;;;28.81;39.40
36092;BME280;22147;52.388;13.390;2023-07-08T08:10:59;101455.63;;;28.44;38.04
36092;BME280;22147;52.388;13.390;2023-07-08T08:13:27;101462.56;;;28.70;38.80
36092;BME280;22147;52.388;13.390;2023-07-08T08:15:59;101459.31;;;28.68;38.22
36092;BME280;22147;52.388;13.390;2023-07-08T08:18:30;101462.25;;;28.85;38.75
36092;BME280;22147;52.388;13.390;2023-07-08T08:20:59;101459.88;;;29.03;38.74
36092;BME280;22147;52.388;13.390;2023-07-08T08:23:27;101460.59;;;29.07;37.38
36092;BME280;22147;52.388;13.390;2023-07-08T08:25:55;101458.22;;;28.82;37.86
36092;BME280;22147;52.388;13.390;2023-07-08T08:28:24;101463.91;;;29.06;39.27
36092;BME280;22147;52.388;13.390;2023-07-08T08:30:52;101466.31;;;29.07;36.06
36092;BME280;22147;52.388;13.390;2023-07-08T08:33:21;101468.13;;;28.97;36.13
36092;BME280;22147;52.388;13.390;2023-07-08T08:35:49;101468.63;;;28.72;36.87
36092;BME280;22147;52.388;13.390;2023-07-08T08:38:18;101463.09;;;29.05;36.17
36092;BME280;22147;52.388;13.390;2023-07-08T08:40:46;101460.63;;;29.27;35.45
36092;BME280;22147;52.388;13.390;2023-07-08T08:43:37;101459.13;;;28.99;35.73
36092;BME280;22147;52.388;13.390;2023-07-08T08:46:24;101468.31;;;28.67;35.02
36092;BME280;22147;52.388;13.390;2023-07-08T08:49:42;101461.84;;;28.86;34.62
36092;BME280;22147;52.388;13.390;2023-07-08T08:52:19;101464.59;;;28.70;33.46
36092;BME280;22147;52.388;13.390;2023-07-08T08:54:49;101460.75;;;29.00;34.31
36092;BME280;22147;52.388;13.390;2023-07-08T09:00:32;101464.38;;;29.24;33.92
36092;BME280;22147;52.388;13.390;2023-07-08T09:03:18;101456.66;;;29.41;33.23
36092;BME280;22147;52.388;13.390;2023-07-08T09:06:13;101458.88;;;29.90;35.44
36092;BME280;22147;52.388;13.390;2023-07-08T09:08:57;101459.50;;;30.14;32.62
36092;BME280;22147;52.388;13.390;2023-07-08T09:12:20;101460.22;;;30.01;32.67
36092;BME280;22147;52.388;13.390;2023-07-08T09:14:35;101464.84;;;29.59;32.40
36092;BME280;22147;52.388;13.390;2023-07-08T09:17:32;101457.16;;;29.92;35.41
36092;BME280;22147;52.388;13.390;2023-07-08T09:20:27;101447.53;;;30.19;29.99
36092;BME280;22147;52.388;13.390;2023-07-08T09:23:31;101450.19;;;30.10;29.14
36092;BME280;22147;52.388;13.390;2023-07-08T09:26:16;101457.53;;;29.58;31.72
36092;BME280;22147;52.388;13.390;2023-07-08T09:28:51;101460.97;;;29.49;30.45
36092;BME280;22147;52.388;13.390;2023-07-08T09:31:31;101454.16;;;29.43;29.75
36092;BME280;22147;52.388;13.390;2023-07-08T09:34:41;101443.47;;;29.47;29.04
36092;BME280;22147;52.388;13.390;2023-07-08T09:37:24;101446.25;;;29.51;30.16
36092;BME280;22147;52.388;13.390;2023-07-08T09:40:16;101451.50;;;29.72;30.13
36092;BME280;22147;52.388;13.390;2023-07-08T09:43:42;101447.66;;;29.59;29.15
36092;BME280;22147;52.388;13.390;2023-07-08T09:46:02;101444.97;;;29.72;31.29
36092;BME280;22147;52.388;13.390;2023-07-08T09:48:36;101447.97;;;29.64;31.19
36092;BME280;22147;52.388;13.390;2023-07-08T09:51:06;101444.88;;;29.75;29.18
36092;BME280;22147;52.388;13.390;2023-07-08T09:53:38;101439.84;;;29.99;29.00
36092;BME280;22147;52.388;13.390;2023-07-08T09:56:09;101438.56;;;30.00;30.01
36092;BME280;22147;52.388;13.390;2023-07-08T09:58:42;101439.56;;;29.57;29.70
36092;BME280;22147;52.388;13.390;2023-07-08T10:01:24;101437.69;;;29.67;30.35
36092;BME280;22147;52.388;13.390;2023-07-08T10:04:01;101441.44;;;30.00;32.00
36092;BME280;22147;52.388;13.390;2023-07-08T10:06:33;101435.75;;;30.33;29.74
36092;BME280;22147;52.388;13.390;2023-07-08T10:09:14;101439.47;;;30.47;30.37
36092;BME280;22147;52.388;13.390;2023-07-08T10:11:59;101431.16;;;30.36;29.43
36092;BME280;22147;52.388;13.390;2023-07-08T10:14:42;101431.69;;;30.47;29.76
36092;BME280;22147;52.388;13.390;2023-07-08T10:17:21;101431.59;;;30.51;26.49
36092;BME280;22147;52.388;13.390;2023-07-08T10:19:50;101433.91;;;30.39;28.21
36092;BME280;22147;52.388;13.390;2023-07-08T10:22:38;101427.19;;;30.13;28.83
36092;BME280;22147;52.388;13.390;2023-07-08T10:25:28;101444.16;;;29.71;28.92
36092;BME280;22147;52.388;13.390;2023-07-08T10:31:27;101436.94;;;30.16;30.74
36092;BME280;22147;52.388;13.390;2023-07-08T10:53:42;101426.59;;;30.38;29.58
36092;BME280;22147;52.388;13.390;2023-07-08T10:56:54;101414.09;;;30.61;29.12
36092;BME280;22147;52.388;13.390;2023-07-08T11:06:15;101424.16;;;29.51;28.53
36092;BME280;22147;52.388;13.390;2023-07-08T11:08:57;101419.56;;;29.37;29.17
36092;BME280;22147;52.388;13.390;2023-07-08T11:12:08;101419.16;;;29.55;28.84
36092;BME280;22147;52.388;13.390;2023-07-08T11:15:17;101413.63;;;29.28;28.73
36092;BME280;22147;52.388;13.390;2023-07-08T11:18:46;101410.84;;;29.25;30.10
36092;BME280;22147;52.388;13.390;2023-07-08T11:21:36;101405.22;;;29.57;30.86
36092;BME280;22147;52.388;13.390;2023-07-08T11:24:47;101411.94;;;29.31;28.23
36092;BME280;22147;52.388;13.390;2023-07-08T11:27:31;101405.38;;;29.50;28.74
36092;BME280;22147;52.388;13.390;2023-07-08T11:30:22;101395.38;;;29.58;29.50
36092;BME280;22147;52.388;13.390;2023-07-08T11:33:04;101400.84;;;29.53;27.51
36092;BME280;22147;52.388;13.390;2023-07-08T11:35:49;101390.31;;;29.66;30.21
36092;BME280;22147;52.388;13.390;2023-07-08T11:38:21;101397.16;;;29.52;29.28
36092;BME280;22147;52.388;13.390;2023-07-08T11:41:02;101388.56;;;29.36;29.25
36092;BME280;22147;52.388;13.390;2023-07-08T11:43:53;101391.44;;;29.52;28.90
36092;BME280;22147;52.388;13.390;2023-07-08T11:46:32;101382.47;;;29.50;27.64
36092;BME280;22147;52.388;13.390;2023-07-08T11:49:06;101380.56;;;29.27;28.07
36092;BME280;22147;52.388;13.390;2023-07-08T11:51:46;101369.84;;;29.31;27.74
36092;BME280;22147;52.388;13.390;2023-07-08T11:54:35;101374.16;;;29.39;27.91
36092;BME280;22147;52.388;13.390;2023-07-08T11:57:14;101377.25;;;29.09;28.49
36092;BME280;22147;52.388;13.390;2023-07-08T11:59:47;101375.28;;;29.06;29.60
36092;BME280;22147;52.388;13.390;2023-07-08T12:02:20;101363.84;;;29.26;29.62
36092;BME280;22147;52.388;13.390;2023-07-08T12:05:00;101366.91;;;29.35;30.50
36092;BME280;22147;52.388;13.390;2023-07-08T12:07:42;101370.84;;;29.41;29.28
36092;BME280;22147;52.388;13.390;2023-07-08T12:10:41;101368.03;;;29.21;28.38
36092;BME280;22147;52.388;13.390;2023-07-08T12:13:23;101365.75;;;29.12;29.07
36092;BME280;22147;52.388;13.390;2023-07-08T12:15:56;101370.72;;;29.28;28.96
36092;BME280;22147;52.388;13.390;2023-07-08T12:18:34;101363.78;;;29.46;29.06
36092;BME280;22147;52.388;13.390;2023-07-08T12:21:08;101366.94;;;29.51;29.75
36092;BME280;22147;52.388;13.390;2023-07-08T12:23:46;101356.03;;;29.62;30.10
36092;BME280;22147;52.388;13.390;2023-07-08T12:26:17;101354.66;;;29.34;29.04
36092;BME280;22147;52.388;13.390;2023-07-08T12:28:47;101355.31;;;29.58;28.51
36092;BME280;22147;52.388;13.390;2023-07-08T12:31:23;101341.00;;;29.58;28.29
36092;BME280;22147;52.388;13.390;2023-07-08T12:33:55;101356.94;;;29.23;28.23
36092;BME280;22147;52.388;13.390;2023-07-08T12:36:28;101348.03;;;29.37;28.92
36092;BME280;22147;52.388;13.390;2023-07-08T12:39:02;101362.72;;;29.39;27.48
36092;BME280;22147;52.388;13.390;2023-07-08T12:41:34;101347.94;;;29.25;28.89
36092;BME280;22147;52.388;13.390;2023-07-08T12:44:24;101349.44;;;29.13;28.85
36092;BME280;22147;52.388;13.390;2023-07-08T12:47:00;101345.16;;;29.21;29.07
36092;BME280;22147;52.388;13.390;2023-07-08T12:49:32;101336.13;;;29.22;28.33
36092;BME280;22147;52.388;13.390;2023-07-08T12:52:04;101340.16;;;29.25;30.05
36092;BME280;22147;52.388;13.390;2023-07-08T12:54:34;101344.56;;;29.30;28.37
36092;BME280;22147;52.388;13.390;2023-07-08T12:57:03;101341.34;;;29.28;28.58
36092;BME280;22147;52.388;13.390;2023-07-08T12:59:31;101330.38;;;29.42;28.79
36092;BME280;22147;52.388;13.390;2023-07-08T13:02:00;101335.25;;;29.42;28.77
36092;BME280;22147;52.388;13.390;2023-07-08T13:04:28;101335.25;;;29.42;29.17
36092;BME280;22147;52.388;13.390;2023-07-08T13:06:57;101334.13;;;29.56;29.33
36092;BME280;22147;52.388;13.390;2023-07-08T13:09:45;101332.72;;;29.64;30.55
36092;BME280;22147;52.388;13.390;2023-07-08T13:12:20;101329.06;;;29.63;29.60
36092;BME280;22147;52.388;13.390;2023-07-08T13:14:59;101318.59;;;29.73;30.63
36092;BME280;22147;52.388;13.390;2023-07-08T13:17:30;101327.28;;;29.70;31.12
36092;BME280;22147;52.388;13.390;2023-07-08T13:20:01;101320.94;;;29.78;29.40
36092;BME280;22147;52.388;13.390;2023-07-08T13:22:30;101319.31;;;29.77;30.84
36092;BME280;22147;52.388;13.390;2023-07-08T13:25:03;101324.50;;;29.66;27.54
36092;BME280;22147;52.388;13.390;2023-07-08T13:27:40;101325.28;;;29.67;27.27
36092;BME280;22147;52.388;13.390;2023-07-08T13:30:24;101317.59;;;29.63;26.72
36092;BME280;22147;52.388;13.390;2023-07-08T13:32:59;101326.72;;;29.58;28.12
36092;BME280;22147;52.388;13.390;2023-07-08T13:35:38;101318.75;;;29.66;29.41
36092;BME280;22147;52.388;13.390;2023-07-08T13:38:23;101315.75;;;29.90;26.41
36092;BME280;22147;52.388;13.390;2023-07-08T13:41:03;101322.09;;;29.97;26.88
36092;BME280;22147;52.388;13.390;2023-07-08T13:43:39;101328.34;;;30.09;27.98